sensor_id;sensor_type;location;lat;lon;timestamp;P1;durP1;ratioP1;P2;durP2;ratioP2
39214;SDS011;24932;51.746;14.334;2022-09-09T00:00:41;9.85;;;7.85;;
39214;SDS011;24932;51.746;14.334;2022-09-09T00:04:40;9.85;;;7.72;;
39214;SDS011;24932;51.746;14.334;2022-09-09T00:08:42;10.13;;;7.5;;
39214;SDS011;24932;51.746;14.334;2022-09-09T00:12:42;10.1;;;7.2;;
39214;SDS011;24932;51.746;14.334;2022-09-09T00:16:41;9.48;;;7.55;;
39214;SDS011;24932;51.746;14.334;2022-09-09T00:20:40;11.9;;;7.3;;
39214;SDS011;24932;51.746;14.334;2022-09-09T00:24:42;10.15;;;7.72;;
39214;SDS011;24932;51.746;14.334;2022-09-09T00:28:42;10.38;;;8.95;;
39214;SDS011;24932;51.746;14.334;2022-09-09T00:32:40;9.2;;;8.13;;
39214;SDS011;24932;51.746;14.334;2022-09-09T00:36:40;14.82;;;9.05;;
39214;SDS011;24932;51.746;14.334;2022-09-09T00:40:41;11.9;;;8.63;;
39214;SDS011;24932;51.746;14.334;2022-09-09T00:44:44;14.07;;;8.7;;
39214;SDS011;24932;51.746;14.334;2022-09-09T00:48:43;10.65;;;9.02;;
39214;SDS011;24932;51.746;14.334;2022-09-09T00:52:43;10.88;;;8.55;;
39214;SDS011;24932;51.746;14.334;2022-09-09T00:56:41;13.55;;;7.9;;
39214;SDS011;24932;51.746;14.334;2022-09-09T01:00:41;14.32;;;8.45;;
39214;SDS011;24932;51.746;14.334;2022-09-09T01:04:40;18.62;;;8.8;;
39214;SDS011;24932;51.746;14.334;2022-09-09T01:09:15;12.63;;;8.6;;
39214;SDS011;24932;51.746;14.334;2022-09-09T01:12:41;11.12;;;7.43;;
39214;SDS011;24932;51.746;14.334;2022-09-09T01:16:40;14.38;;;7.9;;
39214;SDS011;24932;51.746;14.334;2022-09-09T01:20:44;13.8;;;8.2;;
39214;SDS011;24932;51.746;14.334;2022-09-09T01:24:41;10.68;;;6.78;;
39214;SDS011;24932;51.746;14.334;2022-09-09T01:28:40;11.52;;;7.6;;
39214;SDS011;24932;51.746;14.334;2022-09-09T01:32:41;12.88;;;7.62;;
39214;SDS011;24932;51.746;14.334;2022-09-09T01:36:42;9.8;;;6.95;;
39214;SDS011;24932;51.746;14.334;2022-09-09T01:40:40;10.07;;;7.18;;
39214;SDS011;24932;51.746;14.334;2022-09-09T01:44:40;11.9;;;6.05;;
39214;SDS011;24932;51.746;14.334;2022-09-09T01:48:40;11.7;;;5.75;;
39214;SDS011;24932;51.746;14.334;2022-09-09T01:52:40;7.15;;;5.53;;
39214;SDS011;24932;51.746;14.334;2022-09-09T01:56:43;6.68;;;5.68;;
39214;SDS011;24932;51.746;14.334;2022-09-09T02:00:43;6.93;;;5.6;;
39214;SDS011;24932;51.746;14.334;2022-09-09T02:04:41;7.97;;;5.15;;
39214;SDS011;24932;51.746;14.334;2022-09-09T02:08:42;9.35;;;5.18;;
39214;SDS011;24932;51.746;14.334;2022-09-09T02:12:40;8.38;;;5.65;;
39214;SDS011;24932;51.746;14.334;2022-09-09T02:16:42;7.62;;;4.9;;
39214;SDS011;24932;51.746;14.334;2022-09-09T02:20:40;6.65;;;4.32;;
39214;SDS011;24932;51.746;14.334;2022-09-09T02:24:40;6.15;;;4.68;;
39214;SDS011;24932;51.746;14.334;2022-09-09T02:28:41;5.07;;;3.83;;
39214;SDS011;24932;51.746;14.334;2022-09-09T02:32:39;8.55;;;4.68;;
39214;SDS011;24932;51.746;14.334;2022-09-09T02:36:40;4.95;;;4.15;;
39214;SDS011;24932;51.746;14.334;2022-09-09T02:40:40;6.28;;;4.1;;
39214;SDS011;24932;51.746;14.334;2022-09-09T02:44:40;5.12;;;4.3;;
39214;SDS011;24932;51.746;14.334;2022-09-09T02:48:42;5.12;;;4.43;;
39214;SDS011;24932;51.746;14.334;2022-09-09T02:52:44;9.52;;;4.9;;
39214;SDS011;24932;51.746;14.334;2022-09-09T02:56:42;5.75;;;3.53;;
39214;SDS011;24932;51.746;14.334;2022-09-09T03:00:40;6.03;;;3.92;;
39214;SDS011;24932;51.746;14.334;2022-09-09T03:04:40;10.38;;;3.95;;
39214;SDS011;24932;51.746;14.334;2022-09-09T03:08:43;6.35;;;3.85;;
39214;SDS011;24932;51.746;14.334;2022-09-09T03:12:40;6.78;;;4.37;;
39214;SDS011;24932;51.746;14.334;2022-09-09T03:16:40;4.1;;;3.17;;
39214;SDS011;24932;51.746;14.334;2022-09-09T03:20:41;5.0;;;4.05;;
39214;SDS011;24932;51.746;14.334;2022-09-09T03:24:40;4.5;;;3.3;;
39214;SDS011;24932;51.746;14.334;2022-09-09T03:28:40;4.2;;;3.1;;
39214;SDS011;24932;51.746;14.334;2022-09-09T03:32:41;4.53;;;3.4;;
39214;SDS011;24932;51.746;14.334;2022-09-09T03:36:40;7.47;;;3.03;;
39214;SDS011;24932;51.746;14.334;2022-09-09T03:40:47;5.32;;;2.9;;
39214;SDS011;24932;51.746;14.334;2022-09-09T03:44:40;5.03;;;3.2;;
39214;SDS011;24932;51.746;14.334;2022-09-09T03:48:40;5.8;;;2.62;;
39214;SDS011;24932;51.746;14.334;2022-09-09T03:52:40;2.42;;;2.22;;
39214;SDS011;24932;51.746;14.334;2022-09-09T03:56:40;5.68;;;2.5;;
39214;SDS011;24932;51.746;14.334;2022-09-09T04:00:41;5.22;;;2.87;;
39214;SDS011;24932;51.746;14.334;2022-09-09T04:04:41;6.15;;;3.47;;
39214;SDS011;24932;51.746;14.334;2022-09-09T04:08:40;4.35;;;3.37;;
39214;SDS011;24932;51.746;14.334;2022-09-09T04:12:40;10.32;;;3.42;;
39214;SDS011;24932;51.746;14.334;2022-09-09T04:16:40;4.82;;;3.08;;
39214;SDS011;24932;51.746;14.334;2022-09-09T04:20:40;4.15;;;2.83;;
39214;SDS011;24932;51.746;14.334;2022-09-09T04:24:40;3.08;;;2.8;;
39214;SDS011;24932;51.746;14.334;2022-09-09T04:28:40;4.93;;;3.8;;
39214;SDS011;24932;51.746;14.334;2022-09-09T04:32:39;6.57;;;4.05;;
39214;SDS011;24932;51.746;14.334;2022-09-09T04:36:40;4.85;;;3.83;;
39214;SDS011;24932;51.746;14.334;2022-09-09T04:40:41;13.77;;;4.0;;
39214;SDS011;24932;51.746;14.334;2022-09-09T04:44:40;5.85;;;4.18;;
39214;SDS011;24932;51.746;14.334;2022-09-09T04:48:40;8.95;;;4.65;;
39214;SDS011;24932;51.746;14.334;2022-09-09T04:52:40;4.8;;;4.4;;
39214;SDS011;24932;51.746;14.334;2022-09-09T04:56:41;8.35;;;3.65;;
39214;SDS011;24932;51.746;14.334;2022-09-09T05:00:41;5.32;;;3.2;;
39214;SDS011;24932;51.746;14.334;2022-09-09T05:04:40;4.18;;;3.33;;
39214;SDS011;24932;51.746;14.334;2022-09-09T05:08:41;4.8;;;2.62;;
39214;SDS011;24932;51.746;14.334;2022-09-09T05:12:40;5.47;;;2.53;;
39214;SDS011;24932;51.746;14.334;2022-09-09T05:16:40;5.12;;;2.2;;
39214;SDS011;24932;51.746;14.334;2022-09-09T05:20:40;3.5;;;2.3;;
39214;SDS011;24932;51.746;14.334;2022-09-09T05:24:39;5.95;;;2.3;;
39214;SDS011;24932;51.746;14.334;2022-09-09T05:28:40;2.62;;;1.6;;
39214;SDS011;24932;51.746;14.334;2022-09-09T05:32:39;2.08;;;1.7;;
39214;SDS011;24932;51.746;14.334;2022-09-09T05:36:40;2.72;;;1.42;;
39214;SDS011;24932;51.746;14.334;2022-09-09T05:40:46;3.53;;;1.58;;
39214;SDS011;24932;51.746;14.334;2022-09-09T05:44:39;4.87;;;1.7;;
39214;SDS011;24932;51.746;14.334;2022-09-09T05:48:41;7.4;;;1.5;;
39214;SDS011;24932;51.746;14.334;2022-09-09T05:52:39;2.25;;;1.52;;
39214;SDS011;24932;51.746;14.334;2022-09-09T05:56:41;2.3;;;1.35;;
39214;SDS011;24932;51.746;14.334;2022-09-09T06:00:40;3.62;;;1.5;;
39214;SDS011;24932;51.746;14.334;2022-09-09T06:04:39;2.78;;;1.5;;
39214;SDS011;24932;51.746;14.334;2022-09-09T06:08:41;2.9;;;1.1;;
39214;SDS011;24932;51.746;14.334;2022-09-09T06:12:40;5.2;;;1.6;;
39214;SDS011;24932;51.746;14.334;2022-09-09T06:16:40;4.35;;;1.58;;
39214;SDS011;24932;51.746;14.334;2022-09-09T06:20:40;4.37;;;1.58;;
39214;SDS011;24932;51.746;14.334;2022-09-09T06:24:40;5.03;;;1.48;;
39214;SDS011;24932;51.746;14.334;2022-09-09T06:28:40;3.7;;;1.1;;
39214;SDS011;24932;51.746;14.334;2022-09-09T06:32:40;3.08;;;1.23;;
39214;SDS011;24932;51.746;14.334;2022-09-09T06:36:40;5.47;;;1.35;;
39214;SDS011;24932;51.746;14.334;2022-09-09T06:40:40;5.55;;;1.23;;
39214;SDS011;24932;51.746;14.334;2022-09-09T06:44:39;4.95;;;1.2;;
39214;SDS011;24932;51.746;14.334;2022-09-09T06:48:41;1.85;;;0.77;;
39214;SDS011;24932;51.746;14.334;2022-09-09T06:52:40;4.97;;;1.37;;
39214;SDS011;24932;51.746;14.334;2022-09-09T06:56:41;3.55;;;1.27;;
39214;SDS011;24932;51.746;14.334;2022-09-09T07:00:40;4.05;;;0.9;;
39214;SDS011;24932;51.746;14.334;2022-09-09T07:04:39;2.55;;;1.27;;
39214;SDS011;24932;51.746;14.334;2022-09-09T07:08:40;3.53;;;1.0;;
39214;SDS011;24932;51.746;14.334;2022-09-09T07:12:40;4.82;;;0.7;;
39214;SDS011;24932;51.746;14.334;2022-09-09T07:16:40;2.53;;;0.8;;
39214;SDS011;24932;51.746;14.334;2022-09-09T07:20:40;7.07;;;1.08;;
39214;SDS011;24932;51.746;14.334;2022-09-09T07:24:40;3.67;;;1.0;;
39214;SDS011;24932;51.746;14.334;2022-09-09T07:28:40;2.67;;;0.7;;
39214;SDS011;24932;51.746;14.334;2022-09-09T07:32:40;2.37;;;1.08;;
39214;SDS011;24932;51.746;14.334;2022-09-09T07:36:40;5.78;;;1.1;;
39214;SDS011;24932;51.746;14.334;2022-09-09T07:40:41;1.77;;;0.8;;
39214;SDS011;24932;51.746;14.334;2022-09-09T07:44:39;4.2;;;1.02;;
39214;SDS011;24932;51.746;14.334;2022-09-09T07:48:43;5.15;;;1.1;;
39214;SDS011;24932;51.746;14.334;2022-09-09T07:52:40;1.65;;;1.12;;
39214;SDS011;24932;51.746;14.334;2022-09-09T07:56:41;2.72;;;0.88;;
39214;SDS011;24932;51.746;14.334;2022-09-09T08:00:40;6.8;;;0.93;;
39214;SDS011;24932;51.746;14.334;2022-09-09T08:04:40;2.47;;;1.1;;
39214;SDS011;24932;51.746;14.334;2022-09-09T08:08:40;3.17;;;1.3;;
39214;SDS011;24932;51.746;14.334;2022-09-09T08:12:56;8.88;;;0.95;;
39214;SDS011;24932;51.746;14.334;2022-09-09T08:16:41;5.15;;;0.9;;
39214;SDS011;24932;51.746;14.334;2022-09-09T08:20:40;4.28;;;1.0;;
39214;SDS011;24932;51.746;14.334;2022-09-09T08:24:41;3.5;;;1.15;;
39214;SDS011;24932;51.746;14.334;2022-09-09T08:28:41;6.0;;;0.9;;
39214;SDS011;24932;51.746;14.334;2022-09-09T08:32:46;3.35;;;0.9;;
39214;SDS011;24932;51.746;14.334;2022-09-09T08:36:41;3.6;;;1.23;;
39214;SDS011;24932;51.746;14.334;2022-09-09T08:40:41;4.12;;;1.15;;
39214;SDS011;24932;51.746;14.334;2022-09-09T08:44:49;2.65;;;0.9;;
39214;SDS011;24932;51.746;14.334;2022-09-09T08:48:44;1.85;;;0.8;;
39214;SDS011;24932;51.746;14.334;2022-09-09T08:52:42;2.6;;;0.7;;
39214;SDS011;24932;51.746;14.334;2022-09-09T08:56:40;1.2;;;0.7;;
39214;SDS011;24932;51.746;14.334;2022-09-09T09:00:44;5.22;;;1.23;;
39214;SDS011;24932;51.746;14.334;2022-09-09T09:04:45;2.62;;;0.8;;
39214;SDS011;24932;51.746;14.334;2022-09-09T09:08:42;3.45;;;1.05;;
39214;SDS011;24932;51.746;14.334;2022-09-09T09:12:41;1.42;;;0.5;;
39214;SDS011;24932;51.746;14.334;2022-09-09T09:16:41;6.1;;;1.0;;
39214;SDS011;24932;51.746;14.334;2022-09-09T09:20:41;3.42;;;1.0;;
39214;SDS011;24932;51.746;14.334;2022-09-09T09:24:41;0.85;;;0.5;;
39214;SDS011;24932;51.746;14.334;2022-09-09T09:28:40;3.6;;;0.88;;
39214;SDS011;24932;51.746;14.334;2022-09-09T09:32:42;6.37;;;1.2;;
39214;SDS011;24932;51.746;14.334;2022-09-09T09:36:41;2.9;;;0.65;;
39214;SDS011;24932;51.746;14.334;2022-09-09T09:40:47;4.15;;;0.73;;
39214;SDS011;24932;51.746;14.334;2022-09-09T09:44:40;3.83;;;0.65;;
39214;SDS011;24932;51.746;14.334;2022-09-09T09:48:41;4.85;;;0.82;;
39214;SDS011;24932;51.746;14.334;2022-09-09T09:52:40;3.58;;;0.9;;
39214;SDS011;24932;51.746;14.334;2022-09-09T09:56:40;2.85;;;0.7;;
39214;SDS011;24932;51.746;14.334;2022-09-09T10:00:46;6.32;;;0.95;;
39214;SDS011;24932;51.746;14.334;2022-09-09T10:04:40;4.43;;;0.98;;
39214;SDS011;24932;51.746;14.334;2022-09-09T10:08:44;3.75;;;0.75;;
39214;SDS011;24932;51.746;14.334;2022-09-09T10:12:43;4.03;;;1.02;;
39214;SDS011;24932;51.746;14.334;2022-09-09T10:16:44;1.83;;;0.93;;
39214;SDS011;24932;51.746;14.334;2022-09-09T10:20:42;3.4;;;0.9;;
39214;SDS011;24932;51.746;14.334;2022-09-09T10:24:46;2.12;;;0.65;;
39214;SDS011;24932;51.746;14.334;2022-09-09T10:28:45;4.35;;;0.88;;
39214;SDS011;24932;51.746;14.334;2022-09-09T10:32:42;6.07;;;1.3;;
39214;SDS011;24932;51.746;14.334;2022-09-09T10:36:42;3.58;;;0.43;;
39214;SDS011;24932;51.746;14.334;2022-09-09T10:40:42;4.47;;;0.8;;
39214;SDS011;24932;51.746;14.334;2022-09-09T10:44:44;2.12;;;0.6;;
39214;SDS011;24932;51.746;14.334;2022-09-09T10:48:44;6.0;;;1.05;;
39214;SDS011;24932;51.746;14.334;2022-09-09T10:52:43;2.4;;;0.73;;
39214;SDS011;24932;51.746;14.334;2022-09-09T10:56:40;3.05;;;0.73;;
39214;SDS011;24932;51.746;14.334;2022-09-09T11:00:41;2.15;;;0.9;;
39214;SDS011;24932;51.746;14.334;2022-09-09T11:04:40;4.32;;;0.9;;
39214;SDS011;24932;51.746;14.334;2022-09-09T11:08:40;2.92;;;1.0;;
39214;SDS011;24932;51.746;14.334;2022-09-09T11:12:40;3.22;;;0.85;;
39214;SDS011;24932;51.746;14.334;2022-09-09T11:16:41;2.92;;;0.8;;
39214;SDS011;24932;51.746;14.334;2022-09-09T11:20:41;3.72;;;0.75;;
39214;SDS011;24932;51.746;14.334;2022-09-09T11:24:41;2.85;;;0.6;;
39214;SDS011;24932;51.746;14.334;2022-09-09T11:28:43;4.28;;;1.0;;
39214;SDS011;24932;51.746;14.334;2022-09-09T11:32:49;1.77;;;0.52;;
39214;SDS011;24932;51.746;14.334;2022-09-09T11:36:44;1.92;;;0.6;;
39214;SDS011;24932;51.746;14.334;2022-09-09T11:40:40;3.08;;;0.9;;
39214;SDS011;24932;51.746;14.334;2022-09-09T11:44:41;2.4;;;0.65;;
39214;SDS011;24932;51.746;14.334;2022-09-09T11:48:41;1.67;;;0.35;;
39214;SDS011;24932;51.746;14.334;2022-09-09T11:52:41;2.1;;;0.25;;
39214;SDS011;24932;51.746;14.334;2022-09-09T11:56:42;1.85;;;0.37;;
39214;SDS011;24932;51.746;14.334;2022-09-09T12:00:41;0.4;;;0.2;;
39214;SDS011;24932;51.746;14.334;2022-09-09T12:04:41;3.53;;;0.2;;
39214;SDS011;24932;51.746;14.334;2022-09-09T12:08:40;3.2;;;0.35;;
39214;SDS011;24932;51.746;14.334;2022-09-09T12:12:44;2.62;;;0.3;;
39214;SDS011;24932;51.746;14.334;2022-09-09T12:16:41;2.7;;;0.25;;
39214;SDS011;24932;51.746;14.334;2022-09-09T12:20:40;2.08;;;0.3;;
39214;SDS011;24932;51.746;14.334;2022-09-09T12:24:40;1.58;;;0.62;;
39214;SDS011;24932;51.746;14.334;2022-09-09T12:28:45;1.23;;;0.32;;
39214;SDS011;24932;51.746;14.334;2022-09-09T12:32:41;2.1;;;0.6;;
39214;SDS011;24932;51.746;14.334;2022-09-09T12:36:40;2.83;;;0.52;;
39214;SDS011;24932;51.746;14.334;2022-09-09T12:40:40;1.95;;;0.55;;
39214;SDS011;24932;51.746;14.334;2022-09-09T12:44:39;1.58;;;0.4;;
39214;SDS011;24932;51.746;14.334;2022-09-09T12:48:40;1.37;;;0.37;;
39214;SDS011;24932;51.746;14.334;2022-09-09T12:52:40;1.5;;;0.4;;
39214;SDS011;24932;51.746;14.334;2022-09-09T12:56:44;2.5;;;0.62;;
39214;SDS011;24932;51.746;14.334;2022-09-09T13:00:48;1.73;;;0.5;;
39214;SDS011;24932;51.746;14.334;2022-09-09T13:04:40;3.42;;;0.95;;
39214;SDS011;24932;51.746;14.334;2022-09-09T13:08:40;3.9;;;0.55;;
39214;SDS011;24932;51.746;14.334;2022-09-09T13:12:40;4.97;;;0.62;;
39214;SDS011;24932;51.746;14.334;2022-09-09T13:16:53;4.18;;;0.8;;
39214;SDS011;24932;51.746;14.334;2022-09-09T13:20:45;2.6;;;0.5;;
39214;SDS011;24932;51.746;14.334;2022-09-09T13:24:40;3.17;;;0.8;;
39214;SDS011;24932;51.746;14.334;2022-09-09T13:28:41;1.87;;;0.82;;
39214;SDS011;24932;51.746;14.334;2022-09-09T13:32:40;2.45;;;0.6;;
39214;SDS011;24932;51.746;14.334;2022-09-09T13:36:40;1.55;;;0.55;;
39214;SDS011;24932;51.746;14.334;2022-09-09T13:40:42;3.12;;;0.43;;
39214;SDS011;24932;51.746;14.334;2022-09-09T13:44:40;2.1;;;0.5;;
39214;SDS011;24932;51.746;14.334;2022-09-09T13:48:39;2.7;;;0.6;;
39214;SDS011;24932;51.746;14.334;2022-09-09T13:52:40;2.9;;;0.7;;
39214;SDS011;24932;51.746;14.334;2022-09-09T13:56:41;1.95;;;0.3;;
39214;SDS011;24932;51.746;14.334;2022-09-09T14:00:41;1.25;;;0.88;;
39214;SDS011;24932;51.746;14.334;2022-09-09T14:04:41;5.18;;;1.08;;
39214;SDS011;24932;51.746;14.334;2022-09-09T14:08:40;4.78;;;1.4;;
39214;SDS011;24932;51.746;14.334;2022-09-09T14:12:40;1.98;;;0.65;;
39214;SDS011;24932;51.746;14.334;2022-09-09T14:16:40;2.47;;;1.0;;
39214;SDS011;24932;51.746;14.334;2022-09-09T14:20:40;1.05;;;0.4;;
39214;SDS011;24932;51.746;14.334;2022-09-09T14:24:40;1.58;;;0.55;;
39214;SDS011;24932;51.746;14.334;2022-09-09T14:28:55;3.35;;;0.93;;
39214;SDS011;24932;51.746;14.334;2022-09-09T14:32:40;1.67;;;0.6;;
39214;SDS011;24932;51.746;14.334;2022-09-09T14:36:40;2.62;;;0.5;;
39214;SDS011;24932;51.746;14.334;2022-09-09T14:40:40;2.05;;;0.8;;
39214;SDS011;24932;51.746;14.334;2022-09-09T14:44:40;2.3;;;0.6;;
39214;SDS011;24932;51.746;14.334;2022-09-09T14:48:40;3.05;;;0.68;;
39214;SDS011;24932;51.746;14.334;2022-09-09T14:52:40;2.05;;;0.6;;
39214;SDS011;24932;51.746;14.334;2022-09-09T14:56:40;6.4;;;1.0;;
39214;SDS011;24932;51.746;14.334;2022-09-09T15:00:40;2.37;;;1.05;;
39214;SDS011;24932;51.746;14.334;2022-09-09T15:04:40;2.12;;;0.6;;
39214;SDS011;24932;51.746;14.334;2022-09-09T15:08:43;2.53;;;0.8;;
39214;SDS011;24932;51.746;14.334;2022-09-09T15:12:39;4.28;;;0.82;;
39214;SDS011;24932;51.746;14.334;2022-09-09T15:16:40;1.6;;;0.57;;
39214;SDS011;24932;51.746;14.334;2022-09-09T15:20:44;2.97;;;1.08;;
39214;SDS011;24932;51.746;14.334;2022-09-09T15:24:40;6.37;;;1.2;;
39214;SDS011;24932;51.746;14.334;2022-09-09T15:28:41;2.87;;;0.6;;
39214;SDS011;24932;51.746;14.334;2022-09-09T15:32:40;3.92;;;0.8;;
39214;SDS011;24932;51.746;14.334;2022-09-09T15:36:41;3.75;;;1.0;;
39214;SDS011;24932;51.746;14.334;2022-09-09T15:40:40;4.78;;;0.8;;
39214;SDS011;24932;51.746;14.334;2022-09-09T15:44:40;1.85;;;0.73;;
39214;SDS011;24932;51.746;14.334;2022-09-09T15:48:40;6.2;;;0.7;;
39214;SDS011;24932;51.746;14.334;2022-09-09T15:52:40;2.25;;;0.7;;
39214;SDS011;24932;51.746;14.334;2022-09-09T15:56:40;2.87;;;0.82;;
39214;SDS011;24932;51.746;14.334;2022-09-09T16:00:40;4.45;;;0.7;;
39214;SDS011;24932;51.746;14.334;2022-09-09T16:04:40;5.18;;;0.7;;
39214;SDS011;24932;51.746;14.334;2022-09-09T16:08:41;2.5;;;1.0;;
39214;SDS011;24932;51.746;14.334;2022-09-09T16:12:41;2.53;;;0.8;;
39214;SDS011;24932;51.746;14.334;2022-09-09T16:16:41;3.62;;;1.12;;
39214;SDS011;24932;51.746;14.334;2022-09-09T16:20:40;2.22;;;0.73;;
39214;SDS011;24932;51.746;14.334;2022-09-09T16:24:40;6.2;;;1.15;;
39214;SDS011;24932;51.746;14.334;2022-09-09T16:28:41;4.53;;;1.27;;
39214;SDS011;24932;51.746;14.334;2022-09-09T16:32:40;5.87;;;1.23;;
39214;SDS011;24932;51.746;14.334;2022-09-09T16:36:41;5.25;;;1.4;;
39214;SDS011;24932;51.746;14.334;2022-09-09T16:40:40;2.9;;;0.55;;
39214;SDS011;24932;51.746;14.334;2022-09-09T16:44:39;2.45;;;0.85;;
39214;SDS011;24932;51.746;14.334;2022-09-09T16:48:41;6.57;;;1.87;;
39214;SDS011;24932;51.746;14.334;2022-09-09T16:52:40;4.75;;;0.82;;
39214;SDS011;24932;51.746;14.334;2022-09-09T16:56:41;2.55;;;1.15;;
39214;SDS011;24932;51.746;14.334;2022-09-09T17:00:40;2.37;;;0.82;;
39214;SDS011;24932;51.746;14.334;2022-09-09T17:04:41;4.15;;;0.9;;
39214;SDS011;24932;51.746;14.334;2022-09-09T17:08:40;3.05;;;0.6;;
39214;SDS011;24932;51.746;14.334;2022-09-09T17:12:42;4.0;;;1.1;;
39214;SDS011;24932;51.746;14.334;2022-09-09T17:16:41;6.07;;;1.67;;
39214;SDS011;24932;51.746;14.334;2022-09-09T17:20:46;1.55;;;0.82;;
39214;SDS011;24932;51.746;14.334;2022-09-09T17:24:40;2.1;;;1.0;;
39214;SDS011;24932;51.746;14.334;2022-09-09T17:28:41;6.35;;;0.8;;
39214;SDS011;24932;51.746;14.334;2022-09-09T17:32:40;9.82;;;1.62;;
39214;SDS011;24932;51.746;14.334;2022-09-09T17:36:40;3.87;;;1.15;;
39214;SDS011;24932;51.746;14.334;2022-09-09T17:40:40;5.12;;;2.4;;
39214;SDS011;24932;51.746;14.334;2022-09-09T17:44:40;4.05;;;2.7;;
39214;SDS011;24932;51.746;14.334;2022-09-09T17:48:41;2.1;;;1.27;;
39214;SDS011;24932;51.746;14.334;2022-09-09T17:52:40;2.5;;;0.8;;
39214;SDS011;24932;51.746;14.334;2022-09-09T17:56:40;5.37;;;0.9;;
39214;SDS011;24932;51.746;14.334;2022-09-09T18:00:40;2.55;;;1.0;;
39214;SDS011;24932;51.746;14.334;2022-09-09T18:04:40;1.85;;;1.02;;
39214;SDS011;24932;51.746;14.334;2022-09-09T18:08:40;5.1;;;0.98;;
39214;SDS011;24932;51.746;14.334;2022-09-09T18:12:40;2.83;;;1.0;;
39214;SDS011;24932;51.746;14.334;2022-09-09T18:16:41;7.62;;;1.83;;
39214;SDS011;24932;51.746;14.334;2022-09-09T18:20:40;3.17;;;1.0;;
39214;SDS011;24932;51.746;14.334;2022-09-09T18:24:40;6.07;;;1.1;;
39214;SDS011;24932;51.746;14.334;2022-09-09T18:28:41;1.55;;;0.98;;
39214;SDS011;24932;51.746;14.334;2022-09-09T18:32:40;2.1;;;0.9;;
39214;SDS011;24932;51.746;14.334;2022-09-09T18:36:41;2.5;;;0.73;;
39214;SDS011;24932;51.746;14.334;2022-09-09T18:40:40;2.72;;;0.98;;
39214;SDS011;24932;51.746;14.334;2022-09-09T18:44:40;2.87;;;0.9;;
39214;SDS011;24932;51.746;14.334;2022-09-09T18:48:40;6.9;;;1.05;;
39214;SDS011;24932;51.746;14.334;2022-09-09T18:52:40;4.18;;;1.0;;
39214;SDS011;24932;51.746;14.334;2022-09-09T18:56:40;9.18;;;1.2;;
39214;SDS011;24932;51.746;14.334;2022-09-09T19:00:40;4.28;;;1.3;;
39214;SDS011;24932;51.746;14.334;2022-09-09T19:04:40;7.68;;;1.37;;
39214;SDS011;24932;51.746;14.334;2022-09-09T19:08:41;1.92;;;1.0;;
39214;SDS011;24932;51.746;14.334;2022-09-09T19:12:41;6.4;;;1.9;;
39214;SDS011;24932;51.746;14.334;2022-09-09T19:16:41;5.53;;;1.5;;
39214;SDS011;24932;51.746;14.334;2022-09-09T19:20:40;6.75;;;1.95;;
39214;SDS011;24932;51.746;14.334;2022-09-09T19:24:39;8.85;;;1.8;;
39214;SDS011;24932;51.746;14.334;2022-09-09T19:28:40;5.6;;;2.22;;
39214;SDS011;24932;51.746;14.334;2022-09-09T19:32:54;25.25;;;3.1;;
39214;SDS011;24932;51.746;14.334;2022-09-09T19:36:41;12.9;;;2.67;;
39214;SDS011;24932;51.746;14.334;2022-09-09T19:40:41;9.35;;;1.83;;
39214;SDS011;24932;51.746;14.334;2022-09-09T19:44:40;4.05;;;1.85;;
39214;SDS011;24932;51.746;14.334;2022-09-09T19:48:41;3.6;;;1.87;;
39214;SDS011;24932;51.746;14.334;2022-09-09T19:52:40;2.45;;;1.4;;
39214;SDS011;24932;51.746;14.334;2022-09-09T19:56:41;3.62;;;1.4;;
39214;SDS011;24932;51.746;14.334;2022-09-09T20:00:40;6.47;;;2.1;;
39214;SDS011;24932;51.746;14.334;2022-09-09T20:04:40;8.05;;;1.62;;
39214;SDS011;24932;51.746;14.334;2022-09-09T20:08:42;1.77;;;1.3;;
39214;SDS011;24932;51.746;14.334;2022-09-09T20:12:40;3.67;;;1.55;;
39214;SDS011;24932;51.746;14.334;2022-09-09T20:16:40;4.25;;;1.85;;
39214;SDS011;24932;51.746;14.334;2022-09-09T20:20:40;3.45;;;1.58;;
39214;SDS011;24932;51.746;14.334;2022-09-09T20:24:40;5.03;;;2.08;;
39214;SDS011;24932;51.746;14.334;2022-09-09T20:28:40;8.05;;;2.1;;
39214;SDS011;24932;51.746;14.334;2022-09-09T20:32:40;9.25;;;3.22;;
39214;SDS011;24932;51.746;14.334;2022-09-09T20:36:40;3.1;;;2.2;;
39214;SDS011;24932;51.746;14.334;2022-09-09T20:40:40;5.03;;;2.5;;
39214;SDS011;24932;51.746;14.334;2022-09-09T20:44:41;7.4;;;3.17;;
39214;SDS011;24932;51.746;14.334;2022-09-09T20:48:40;6.6;;;3.28;;
39214;SDS011;24932;51.746;14.334;2022-09-09T20:52:40;9.68;;;3.37;;
39214;SDS011;24932;51.746;14.334;2022-09-09T20:56:41;6.95;;;3.72;;
39214;SDS011;24932;51.746;14.334;2022-09-09T21:00:40;6.75;;;3.67;;
39214;SDS011;24932;51.746;14.334;2022-09-09T21:04:40;5.3;;;3.53;;
39214;SDS011;24932;51.746;14.334;2022-09-09T21:08:40;9.75;;;3.78;;
39214;SDS011;24932;51.746;14.334;2022-09-09T21:12:40;8.27;;;4.18;;
39214;SDS011;24932;51.746;14.334;2022-09-09T21:16:40;8.2;;;4.8;;
39214;SDS011;24932;51.746;14.334;2022-09-09T21:20:40;14.77;;;5.4;;
39214;SDS011;24932;51.746;14.334;2022-09-09T21:24:40;9.5;;;4.53;;
39214;SDS011;24932;51.746;14.334;2022-09-09T21:28:40;10.9;;;5.2;;
39214;SDS011;24932;51.746;14.334;2022-09-09T21:32:40;8.93;;;4.28;;
39214;SDS011;24932;51.746;14.334;2022-09-09T21:36:40;8.07;;;4.18;;
39214;SDS011;24932;51.746;14.334;2022-09-09T21:40:40;7.78;;;4.05;;
39214;SDS011;24932;51.746;14.334;2022-09-09T21:44:40;9.1;;;4.18;;
39214;SDS011;24932;51.746;14.334;2022-09-09T21:48:40;8.0;;;4.6;;
39214;SDS011;24932;51.746;14.334;2022-09-09T21:52:40;10.95;;;3.65;;
39214;SDS011;24932;51.746;14.334;2022-09-09T21:56:40;7.35;;;3.92;;
39214;SDS011;24932;51.746;14.334;2022-09-09T22:00:40;11.23;;;5.05;;
39214;SDS011;24932;51.746;14.334;2022-09-09T22:04:41;8.6;;;4.55;;
39214;SDS011;24932;51.746;14.334;2022-09-09T22:08:40;10.45;;;4.85;;
39214;SDS011;24932;51.746;14.334;2022-09-09T22:12:40;7.07;;;4.65;;
39214;SDS011;24932;51.746;14.334;2022-09-09T22:16:40;8.88;;;5.03;;
39214;SDS011;24932;51.746;14.334;2022-09-09T22:20:41;14.23;;;5.47;;
39214;SDS011;24932;51.746;14.334;2022-09-09T22:24:40;9.1;;;5.1;;
39214;SDS011;24932;51.746;14.334;2022-09-09T22:28:40;9.43;;;6.12;;
39214;SDS011;24932;51.746;14.334;2022-09-09T22:32:40;15.77;;;5.78;;
39214;SDS011;24932;51.746;14.334;2022-09-09T22:36:40;8.13;;;5.68;;
39214;SDS011;24932;51.746;14.334;2022-09-09T22:40:40;10.68;;;5.5;;
39214;SDS011;24932;51.746;14.334;2022-09-09T22:44:40;13.65;;;5.93;;
39214;SDS011;24932;51.746;14.334;2022-09-09T22:48:40;13.62;;;7.12;;
39214;SDS011;24932;51.746;14.334;2022-09-09T22:52:40;13.38;;;6.32;;
39214;SDS011;24932;51.746;14.334;2022-09-09T22:56:41;12.37;;;6.35;;
39214;SDS011;24932;51.746;14.334;2022-09-09T23:00:40;13.85;;;5.82;;
39214;SDS011;24932;51.746;14.334;2022-09-09T23:04:40;6.37;;;5.1;;
39214;SDS011;24932;51.746;14.334;2022-09-09T23:08:40;7.93;;;5.22;;
39214;SDS011;24932;51.746;14.334;2022-09-09T23:12:40;15.5;;;7.95;;
39214;SDS011;24932;51.746;14.334;2022-09-09T23:16:42;9.6;;;6.53;;
39214;SDS011;24932;51.746;14.334;2022-09-09T23:20:40;18.52;;;7.1;;
39214;SDS011;24932;51.746;14.334;2022-09-09T23:24:40;13.95;;;6.53;;
39214;SDS011;24932;51.746;14.334;2022-09-09T23:28:40;8.45;;;6.18;;
39214;SDS011;24932;51.746;14.334;2022-09-09T23:32:40;11.77;;;5.72;;
39214;SDS011;24932;51.746;14.334;2022-09-09T23:36:40;27.8;;;8.6;;
39214;SDS011;24932;51.746;14.334;2022-09-09T23:40:41;13.0;;;5.9;;
39214;SDS011;24932;51.746;14.334;2022-09-09T23:44:40;11.45;;;5.82;;
39214;SDS011;24932;51.746;14.334;2022-09-09T23:48:40;15.55;;;6.85;;
39214;SDS011;24932;51.746;14.334;2022-09-09T23:52:40;8.02;;;5.78;;